createdAt,value
2019-02-24T00:02:16.806Z,23.80
2019-02-24T00:04:47.011Z,24.77
2019-02-24T00:07:17.385Z,23.40
2019-02-24T00:09:47.710Z,20.93
2019-02-24T00:12:17.876Z,22.00
2019-02-24T00:14:48.118Z,22.53
2019-02-24T00:17:18.378Z,21.70
2019-02-24T00:19:48.527Z,21.90
2019-02-24T00:22:18.815Z,21.50
2019-02-24T00:24:49.026Z,21.10
2019-02-24T00:27:19.071Z,22.13
2019-02-24T00:29:49.220Z,22.03
2019-02-24T00:32:19.513Z,21.20
2019-02-24T00:34:49.766Z,23.20
2019-02-24T00:37:19.867Z,21.27
2019-02-24T00:39:49.990Z,21.67
2019-02-24T00:42:20.085Z,22.05
2019-02-24T00:44:50.234Z,22.33
2019-02-24T00:47:20.458Z,21.87
2019-02-24T00:49:50.723Z,20.37
2019-02-24T00:52:21.786Z,21.85
2019-02-24T00:54:52.054Z,22.17
2019-02-24T00:57:22.340Z,22.20
2019-02-24T00:59:52.518Z,22.30
2019-02-24T01:02:22.617Z,20.55
2019-02-24T01:04:52.775Z,19.87
2019-02-24T01:07:23.066Z,21.40
2019-02-24T01:09:53.172Z,21.03
2019-02-24T01:12:23.337Z,21.87
2019-02-24T01:14:53.460Z,20.93
2019-02-24T01:17:23.545Z,22.40
2019-02-24T01:19:53.848Z,20.70
2019-02-24T01:22:23.913Z,21.43
2019-02-24T01:24:54.004Z,21.20
2019-02-24T01:27:24.150Z,20.50
2019-02-24T01:29:54.374Z,20.57
2019-02-24T01:32:24.496Z,20.63
2019-02-24T01:34:54.728Z,21.33
2019-02-24T01:37:25.034Z,21.63
2019-02-24T01:39:55.250Z,20.37
2019-02-24T01:42:25.990Z,21.80
2019-02-24T01:44:56.138Z,20.97
2019-02-24T01:47:26.289Z,20.70
2019-02-24T01:49:56.558Z,20.87
2019-02-24T01:52:26.693Z,22.07
2019-02-24T01:54:56.871Z,22.23
2019-02-24T01:57:27.018Z,21.93
2019-02-24T01:59:57.170Z,21.90
2019-02-24T02:02:27.309Z,20.70
2019-02-24T02:04:58.581Z,22.57
2019-02-24T02:07:28.965Z,22.50
2019-02-24T02:09:59.172Z,21.93
2019-02-24T02:12:29.907Z,21.00
2019-02-24T02:15:02.630Z,19.73
2019-02-24T02:17:32.849Z,20.70
2019-02-24T02:20:03.149Z,21.13
2019-02-24T02:22:33.329Z,20.60
2019-02-24T02:25:03.726Z,21.97
2019-02-24T02:27:34.040Z,21.07
2019-02-24T02:30:04.381Z,21.00
2019-02-24T02:32:34.630Z,20.77
2019-02-24T02:35:05.744Z,22.27
2019-02-24T02:37:36.094Z,19.37
2019-02-24T02:40:06.920Z,21.50
2019-02-24T02:42:37.078Z,21.37
2019-02-24T02:45:08.080Z,21.03
2019-02-24T02:47:38.163Z,20.93
2019-02-24T02:50:08.398Z,18.73
2019-02-24T02:52:38.519Z,19.37
2019-02-24T02:55:08.820Z,21.27
2019-02-24T02:57:38.998Z,21.03
2019-02-24T03:00:36.712Z,21.20
2019-02-24T03:03:06.917Z,21.60
2019-02-24T03:05:37.166Z,21.40
2019-02-24T03:08:12.305Z,21.33
2019-02-24T03:10:42.596Z,21.07
2019-02-24T03:13:12.673Z,20.33
2019-02-24T03:15:42.750Z,20.93
2019-02-24T03:18:12.886Z,20.73
2019-02-24T03:20:44.307Z,21.43
2019-02-24T03:23:14.382Z,20.65
2019-02-24T03:25:44.542Z,21.00
2019-02-24T03:28:14.702Z,20.27
2019-02-24T03:30:44.834Z,21.00
2019-02-24T03:33:14.898Z,21.48
2019-02-24T03:35:45.087Z,21.27
2019-02-24T03:38:15.224Z,21.62
2019-02-24T03:40:45.514Z,21.00
2019-02-24T03:43:15.809Z,20.48
2019-02-24T03:45:45.970Z,22.33
2019-02-24T03:48:16.172Z,21.53
2019-02-24T03:50:46.244Z,20.93
2019-02-24T03:53:16.394Z,20.13
2019-02-24T03:55:46.500Z,21.90
2019-02-24T03:58:16.761Z,21.70
2019-02-24T04:00:46.949Z,21.77
2019-02-24T04:03:17.242Z,21.80
2019-02-24T04:05:47.410Z,21.20
2019-02-24T04:08:17.632Z,21.07
2019-02-24T04:10:47.916Z,20.90
2019-02-24T04:13:18.075Z,20.88
2019-02-24T04:15:48.396Z,22.37
2019-02-24T04:18:18.643Z,22.07
2019-02-24T04:20:48.804Z,20.77
2019-02-24T04:23:18.902Z,22.83
2019-02-24T04:25:49.055Z,22.17
2019-02-24T04:28:19.424Z,22.23
2019-02-24T04:30:49.581Z,25.37
2019-02-24T04:33:27.644Z,23.13
2019-02-24T04:36:06.079Z,23.32
2019-02-24T04:38:36.331Z,24.33
2019-02-24T04:41:06.949Z,24.83
2019-02-24T04:43:37.256Z,21.37
2019-02-24T04:46:07.308Z,21.20
2019-02-24T04:48:37.567Z,24.20
2019-02-24T04:51:07.763Z,22.63
2019-02-24T04:53:41.113Z,23.25
2019-02-24T04:56:11.192Z,22.42
2019-02-24T04:58:41.721Z,22.27
2019-02-24T05:01:12.110Z,23.70
2019-02-24T05:03:42.631Z,23.40
2019-02-24T05:06:13.187Z,23.80
2019-02-24T05:08:43.598Z,21.40
2019-02-24T05:11:18.641Z,22.40
2019-02-24T05:13:49.217Z,23.57
2019-02-24T05:16:19.691Z,22.87
2019-02-24T05:18:50.331Z,24.47
2019-02-24T05:21:20.665Z,24.73
2019-02-24T05:23:51.168Z,24.40
2019-02-24T05:26:21.675Z,23.53
2019-02-24T05:28:52.147Z,24.05
2019-02-24T05:33:52.691Z,22.47
2019-02-24T05:36:23.184Z,22.97
2019-02-24T05:38:53.768Z,22.33
2019-02-24T05:41:24.409Z,24.97
2019-02-24T05:43:54.890Z,24.17
2019-02-24T05:46:25.325Z,23.93
2019-02-24T05:48:55.852Z,22.43
2019-02-24T05:51:26.393Z,24.30
2019-02-24T05:53:56.880Z,24.17
2019-02-24T05:56:27.324Z,23.13
2019-02-24T05:58:57.840Z,24.73
2019-02-24T06:01:28.368Z,22.97
2019-02-24T06:03:58.720Z,22.77
2019-02-24T06:06:29.273Z,25.27
2019-02-24T06:11:47.111Z,25.37
2019-02-24T06:14:17.703Z,24.25
2019-02-24T06:16:48.166Z,25.20
2019-02-24T06:19:18.778Z,22.80
2019-02-24T06:21:49.074Z,23.55
2019-02-24T06:24:19.525Z,22.73
2019-02-24T06:26:50.059Z,22.53
2019-02-24T06:29:20.579Z,25.43
2019-02-24T06:31:51.452Z,24.82
2019-02-24T06:34:22.251Z,25.20
2019-02-24T06:36:52.874Z,23.57
2019-02-24T06:39:23.209Z,23.97
2019-02-24T06:41:53.724Z,24.70
2019-02-24T06:44:23.883Z,24.37
2019-02-24T06:46:54.110Z,24.27
2019-02-24T06:49:24.267Z,23.97
2019-02-24T06:51:54.513Z,26.23
2019-02-24T06:54:24.577Z,22.70
2019-02-24T06:56:54.994Z,25.48
2019-02-24T06:59:25.320Z,25.43
2019-02-24T07:02:08.789Z,24.47
2019-02-24T07:04:38.911Z,23.57
2019-02-24T07:07:09.105Z,22.17
2019-02-24T07:09:39.390Z,22.67
2019-02-24T07:12:09.552Z,25.23
2019-02-24T07:14:39.730Z,24.77
2019-02-24T07:17:09.981Z,25.17
2019-02-24T07:19:40.337Z,22.83
2019-02-24T07:22:10.627Z,23.03
2019-02-24T07:24:43.857Z,24.53
2019-02-24T07:27:14.205Z,23.55
2019-02-24T07:29:44.468Z,26.33
2019-02-24T07:32:14.695Z,26.80
2019-02-24T07:34:44.884Z,24.43
2019-02-24T07:37:17.272Z,25.27
2019-02-24T07:39:49.724Z,26.67
2019-02-24T07:42:20.240Z,26.68
2019-02-24T07:44:50.569Z,25.03
2019-02-24T07:47:20.932Z,25.32
2019-02-24T07:49:51.245Z,26.27
2019-02-24T07:52:21.485Z,25.02
2019-02-24T07:54:51.715Z,23.93
2019-02-24T07:57:21.901Z,24.80
2019-02-24T07:59:52.074Z,25.13
2019-02-24T08:02:22.350Z,25.53
2019-02-24T08:04:52.596Z,23.42
2019-02-24T08:07:22.740Z,23.02
2019-02-24T08:09:52.871Z,22.17
2019-02-24T08:12:23.070Z,22.47
2019-02-24T08:14:53.252Z,22.93
2019-02-24T08:17:25.771Z,21.47
2019-02-24T08:19:55.248Z,23.20
2019-02-24T08:22:25.550Z,21.60
2019-02-24T08:25:00.274Z,21.33
2019-02-24T08:27:30.507Z,19.50
2019-02-24T08:30:02.539Z,20.40
2019-02-24T08:32:32.768Z,19.33
2019-02-24T08:35:02.951Z,18.93
2019-02-24T08:37:33.255Z,20.40
2019-02-24T08:40:03.633Z,20.37
2019-02-24T08:42:33.859Z,21.15
2019-02-24T08:45:04.158Z,18.87
2019-02-24T08:47:34.416Z,19.10
2019-02-24T08:50:05.278Z,19.70
2019-02-24T08:52:35.563Z,19.67
2019-02-24T08:55:07.010Z,17.62
2019-02-24T08:57:37.216Z,18.93
2019-02-24T09:00:09.752Z,21.27
2019-02-24T09:02:39.930Z,19.03
2019-02-24T09:05:15.925Z,20.72
2019-02-24T09:07:46.069Z,19.83
2019-02-24T09:10:19.304Z,18.40
2019-02-24T09:12:49.567Z,18.27
2019-02-24T09:15:20.087Z,18.50
2019-02-24T09:17:50.316Z,18.00
2019-02-24T09:20:20.594Z,16.20
2019-02-24T09:22:50.836Z,16.60
2019-02-24T09:25:21.045Z,16.33
2019-02-24T09:27:51.371Z,15.83
2019-02-24T09:30:21.495Z,16.10
2019-02-24T09:32:51.596Z,15.07
2019-02-24T09:35:21.819Z,15.40
2019-02-24T09:37:51.973Z,15.85
2019-02-24T09:40:22.134Z,14.85
2019-02-24T09:42:52.291Z,14.53
2019-02-24T09:45:22.507Z,15.90
2019-02-24T09:47:52.739Z,16.07
2019-02-24T09:50:24.320Z,16.25
2019-02-24T09:52:54.672Z,16.23
2019-02-24T09:55:25.002Z,15.50
2019-02-24T09:57:55.464Z,15.70
2019-02-24T10:00:25.610Z,13.93
2019-02-24T10:02:57.525Z,15.33
2019-02-24T10:05:27.961Z,14.80
2019-02-24T10:07:59.287Z,14.23
2019-02-24T10:10:29.386Z,15.77
2019-02-24T10:12:59.597Z,15.37
2019-02-24T10:15:29.889Z,14.90
2019-02-24T10:18:00.209Z,14.87
2019-02-24T10:20:30.416Z,16.87
2019-02-24T10:23:01.170Z,14.13
2019-02-24T10:25:31.248Z,15.47
2019-02-24T10:28:03.196Z,14.87
2019-02-24T10:30:33.414Z,14.37
2019-02-24T10:33:06.202Z,16.00
2019-02-24T10:35:36.436Z,15.63
2019-02-24T10:38:06.953Z,15.37
2019-02-24T10:40:37.286Z,15.50
2019-02-24T10:43:07.552Z,14.40
2019-02-24T10:45:37.621Z,15.40
2019-02-24T10:48:13.946Z,15.47
2019-02-24T10:50:39.998Z,14.37
2019-02-24T10:53:10.321Z,14.90
2019-02-24T10:55:40.648Z,13.93
2019-02-24T10:58:10.981Z,13.58
2019-02-24T11:00:41.291Z,13.77
2019-02-24T11:03:11.638Z,14.33
2019-02-24T11:05:41.852Z,12.87
2019-02-24T11:08:12.094Z,14.65
2019-02-24T11:10:42.601Z,14.23
2019-02-24T11:13:14.134Z,12.73
2019-02-24T11:15:44.284Z,13.17
2019-02-24T11:18:14.420Z,13.13
2019-02-24T11:20:44.552Z,14.50
2019-02-24T11:23:14.711Z,13.65
2019-02-24T11:25:44.833Z,12.90
2019-02-24T11:28:15.054Z,13.77
2019-02-24T11:30:45.296Z,13.63
2019-02-24T11:33:15.390Z,14.05
2019-02-24T11:35:45.699Z,13.30
2019-02-24T11:38:16.031Z,13.20
2019-02-24T11:40:46.358Z,13.87
2019-02-24T11:43:16.604Z,13.28
2019-02-24T11:45:46.773Z,14.20
2019-02-24T11:48:16.931Z,16.23
2019-02-24T11:50:47.185Z,12.87
2019-02-24T11:53:17.287Z,12.63
2019-02-24T11:55:47.470Z,12.13
2019-02-24T11:58:17.566Z,11.27
2019-02-24T12:00:47.872Z,10.67
2019-02-24T12:03:18.043Z,11.03
2019-02-24T12:05:48.301Z,11.40
2019-02-24T12:08:18.484Z,10.63
2019-02-24T12:10:48.602Z,9.73
2019-02-24T12:13:18.876Z,10.43
2019-02-24T12:15:49.118Z,11.60
2019-02-24T12:18:19.333Z,11.80
2019-02-24T12:20:49.661Z,12.00
2019-02-24T12:23:19.976Z,13.00
2019-02-24T12:25:50.342Z,12.23
2019-02-24T12:28:20.790Z,11.25
2019-02-24T12:30:51.111Z,11.37
2019-02-24T12:33:21.378Z,11.17
2019-02-24T12:35:51.697Z,10.50
2019-02-24T12:38:22.018Z,10.25
2019-02-24T12:40:54.330Z,10.75
2019-02-24T12:43:24.717Z,11.22
2019-02-24T12:45:56.953Z,10.80
2019-02-24T12:48:27.071Z,11.10
2019-02-24T12:50:57.319Z,10.60
2019-02-24T12:53:27.692Z,9.77
2019-02-24T12:55:57.985Z,9.30
2019-02-24T12:58:28.265Z,9.57
2019-02-24T13:00:58.594Z,8.47
2019-02-24T13:03:28.873Z,8.87
2019-02-24T13:05:59.161Z,9.20
2019-02-24T13:08:29.435Z,8.40
2019-02-24T13:10:59.820Z,9.40
2019-02-24T13:13:30.154Z,10.97
2019-02-24T13:16:00.315Z,10.00
2019-02-24T13:18:30.554Z,10.80
2019-02-24T13:21:00.759Z,10.43
2019-02-24T13:23:30.976Z,10.30
2019-02-24T13:26:02.155Z,9.63
2019-02-24T13:28:34.541Z,10.70
2019-02-24T13:31:04.838Z,10.20
2019-02-24T13:33:35.172Z,9.40
2019-02-24T13:36:06.842Z,9.37
2019-02-24T13:38:37.098Z,9.93
2019-02-24T13:41:07.442Z,9.57
2019-02-24T13:43:37.831Z,9.70
2019-02-24T13:46:08.108Z,9.83
2019-02-24T13:48:38.491Z,9.30
2019-02-24T13:51:09.843Z,9.23
2019-02-24T13:53:40.288Z,9.03
2019-02-24T13:56:10.680Z,8.90
2019-02-24T13:58:41.095Z,9.43
2019-02-24T14:01:11.254Z,9.33
2019-02-24T14:03:41.595Z,8.13
2019-02-24T14:06:11.897Z,8.43
2019-02-24T14:08:42.209Z,8.90
2019-02-24T14:11:12.502Z,9.10
2019-02-24T14:13:42.736Z,8.53
2019-02-24T14:16:12.917Z,9.35
2019-02-24T14:18:43.103Z,8.83
2019-02-24T14:21:13.402Z,9.60
2019-02-24T14:23:43.642Z,9.47
2019-02-24T14:26:14.088Z,9.30
2019-02-24T14:28:48.230Z,9.40
2019-02-24T14:31:18.499Z,8.98
2019-02-24T14:33:48.829Z,9.43
2019-02-24T14:36:19.194Z,9.05
2019-02-24T14:38:49.516Z,9.50
2019-02-24T14:41:19.876Z,9.53
2019-02-24T14:43:50.655Z,9.30
2019-02-24T14:46:20.915Z,9.38
2019-02-24T14:48:51.330Z,9.20
2019-02-24T14:51:21.632Z,9.28
2019-02-24T14:53:51.937Z,8.90
2019-02-24T14:56:22.160Z,9.90
2019-02-24T14:58:52.471Z,10.07
2019-02-24T15:01:22.842Z,9.35
2019-02-24T15:03:54.857Z,9.27
2019-02-24T15:06:25.090Z,10.27
2019-02-24T15:08:55.371Z,9.70
2019-02-24T15:11:25.511Z,8.93
2019-02-24T15:13:55.693Z,9.07
2019-02-24T15:16:25.981Z,9.33
2019-02-24T15:18:56.170Z,9.47
2019-02-24T15:21:26.817Z,9.23
2019-02-24T15:23:56.961Z,8.83
2019-02-24T15:26:29.181Z,8.90
2019-02-24T15:28:59.201Z,9.47
2019-02-24T15:31:29.508Z,8.90
2019-02-24T15:33:59.774Z,8.07
2019-02-24T15:36:29.995Z,8.77
2019-02-24T15:39:00.281Z,9.73
2019-02-24T15:41:30.983Z,8.77
2019-02-24T15:44:01.452Z,9.80
2019-02-24T15:46:31.927Z,9.27
2019-02-24T15:49:02.537Z,9.27
2019-02-24T15:51:33.094Z,9.27
2019-02-24T15:54:03.690Z,9.63
2019-02-24T15:56:34.308Z,10.73
2019-02-24T15:59:04.846Z,10.83
2019-02-24T16:01:35.509Z,10.10
2019-02-24T16:04:07.503Z,11.80
2019-02-24T16:06:38.004Z,12.07
2019-02-24T16:09:10.790Z,12.13
2019-02-24T16:11:41.317Z,13.87
2019-02-24T16:14:11.787Z,10.90
2019-02-24T16:16:42.399Z,11.03
2019-02-24T16:19:15.650Z,15.58
2019-02-24T16:21:49.580Z,14.73
2019-02-24T16:24:20.116Z,10.60
2019-02-24T16:26:50.783Z,10.63
2019-02-24T16:29:21.333Z,11.60
2019-02-24T16:31:51.659Z,12.17
2019-02-24T16:34:22.242Z,11.93
2019-02-24T16:36:53.033Z,12.27
2019-02-24T16:39:23.605Z,10.80
2019-02-24T16:41:56.600Z,12.00
2019-02-24T16:44:27.210Z,11.97
2019-02-24T16:46:57.913Z,11.93
2019-02-24T16:49:29.834Z,12.50
2019-02-24T16:52:02.410Z,12.23
2019-02-24T16:54:32.807Z,12.30
2019-02-24T16:57:07.550Z,11.43
2019-02-24T16:59:37.245Z,12.03
2019-02-24T17:02:07.854Z,11.93
2019-02-24T17:04:38.572Z,14.50
2019-02-24T17:07:09.246Z,13.83
2019-02-24T17:09:42.263Z,13.53
2019-02-24T17:12:12.967Z,17.43
2019-02-24T17:14:46.654Z,14.83
2019-02-24T17:17:17.176Z,15.83
2019-02-24T17:19:47.887Z,14.57
2019-02-24T17:22:18.548Z,15.93
2019-02-24T17:24:49.000Z,17.77
2019-02-24T17:27:20.965Z,18.52
2019-02-24T17:29:58.842Z,18.10
2019-02-24T17:32:31.750Z,17.07
2019-02-24T17:35:02.225Z,17.43
2019-02-24T17:37:41.901Z,17.47
2019-02-24T17:40:13.660Z,14.90
2019-02-24T17:42:46.399Z,12.70
2019-02-24T17:45:17.246Z,14.67
2019-02-24T17:47:47.839Z,14.87
2019-02-24T17:50:18.547Z,16.35
2019-02-24T17:52:49.233Z,16.80
2019-02-24T17:55:19.697Z,16.67
2019-02-24T17:57:50.211Z,17.87
2019-02-24T18:00:26.772Z,15.53
2019-02-24T18:02:57.525Z,16.70
2019-02-24T18:05:28.085Z,15.37
2019-02-24T18:07:58.597Z,14.83
2019-02-24T18:10:29.214Z,14.63
2019-02-24T18:12:59.630Z,18.27
2019-02-24T18:15:30.199Z,18.97
2019-02-24T18:18:07.945Z,21.23
2019-02-24T18:20:38.470Z,19.37
2019-02-24T18:23:09.018Z,22.20
2019-02-24T18:25:39.583Z,22.00
2019-02-24T18:28:10.039Z,22.50
2019-02-24T18:30:40.721Z,21.70
2019-02-24T18:33:11.459Z,20.97
2019-02-24T18:35:41.983Z,20.10
2019-02-24T18:40:55.025Z,23.13
2019-02-24T18:43:25.616Z,22.87
2019-02-24T18:45:56.116Z,22.20
2019-02-24T18:48:26.852Z,21.80
2019-02-24T18:50:59.724Z,22.20
2019-02-24T18:53:31.601Z,23.67
2019-02-24T18:56:02.258Z,23.67
2019-02-24T18:58:32.992Z,24.07
2019-02-24T19:01:12.281Z,24.67
2019-02-24T19:03:42.979Z,23.00
2019-02-24T19:06:13.557Z,23.15
2019-02-24T19:08:44.959Z,22.03
2019-02-24T19:11:15.642Z,21.60
2019-02-24T19:13:46.328Z,23.23
2019-02-24T19:16:16.891Z,22.77
2019-02-24T19:18:47.524Z,24.03
2019-02-24T19:21:18.057Z,21.87
2019-02-24T19:23:48.690Z,21.40
2019-02-24T19:26:19.251Z,21.82
2019-02-24T19:28:49.842Z,22.10
2019-02-24T19:31:20.372Z,22.87
2019-02-24T19:33:50.989Z,22.10
2019-02-24T19:36:21.578Z,23.73
2019-02-24T19:41:16.397Z,22.53
2019-02-24T19:43:46.957Z,23.80
2019-02-24T19:46:17.487Z,20.93
2019-02-24T19:48:48.121Z,24.70
2019-02-24T19:53:48.892Z,21.20
2019-02-24T19:56:19.402Z,23.30
2019-02-24T19:58:50.076Z,24.10
2019-02-24T20:01:22.752Z,22.07
2019-02-24T20:03:53.811Z,21.40
2019-02-24T20:06:24.732Z,22.23
2019-02-24T20:08:55.688Z,22.17
2019-02-24T20:11:26.480Z,21.30
2019-02-24T20:13:57.128Z,20.53
2019-02-24T20:16:27.614Z,20.37
2019-02-24T20:18:58.114Z,21.73
2019-02-24T20:21:28.675Z,20.73
2019-02-24T20:23:59.314Z,19.70
2019-02-24T20:26:29.836Z,19.17
2019-02-24T20:29:00.355Z,20.10
2019-02-24T20:31:30.807Z,20.53
2019-02-24T20:34:01.323Z,20.10
2019-02-24T20:36:31.943Z,20.53
2019-02-24T20:39:02.466Z,19.70
2019-02-24T20:41:33.083Z,19.20
2019-02-24T20:44:03.748Z,20.60
2019-02-24T20:46:34.378Z,18.87
2019-02-24T20:49:04.814Z,20.97
2019-02-24T20:51:36.601Z,21.83
2019-02-24T20:54:07.314Z,20.80
2019-02-24T20:56:39.515Z,21.57
2019-02-24T20:59:09.983Z,21.30
2019-02-24T21:01:40.717Z,21.40
2019-02-24T21:04:11.231Z,20.57
2019-02-24T21:06:41.763Z,20.90
2019-02-24T21:09:12.384Z,20.67
2019-02-24T21:11:42.897Z,22.13
2019-02-24T21:14:13.963Z,21.63
2019-02-24T21:16:44.508Z,22.33
2019-02-24T21:19:15.158Z,21.10
2019-02-24T21:21:45.997Z,22.83
2019-02-24T21:24:16.666Z,22.35
2019-02-24T21:26:47.438Z,20.77
2019-02-24T21:29:17.985Z,22.93
2019-02-24T21:31:48.764Z,22.23
2019-02-24T21:34:19.291Z,23.80
2019-02-24T21:36:49.961Z,21.20
2019-02-24T21:39:20.532Z,22.10
2019-02-24T21:41:51.158Z,23.87
2019-02-24T21:44:21.736Z,31.20
2019-02-24T21:46:52.383Z,23.40
2019-02-24T21:49:22.945Z,25.63
2019-02-24T21:51:53.666Z,22.63
2019-02-24T21:54:24.283Z,23.55
2019-02-24T21:56:59.139Z,23.50
2019-02-24T21:59:36.802Z,26.13
2019-02-24T22:02:01.998Z,25.17
2019-02-24T22:04:32.504Z,24.97
2019-02-24T22:07:03.079Z,26.40
2019-02-24T22:09:33.621Z,25.13
2019-02-24T22:12:04.286Z,24.10
2019-02-24T22:14:34.854Z,23.75
2019-02-24T22:17:05.373Z,23.73
2019-02-24T22:19:35.843Z,25.97
2019-02-24T22:22:06.731Z,26.10
2019-02-24T22:24:37.031Z,24.90
2019-02-24T22:27:07.402Z,26.10
2019-02-24T22:29:37.736Z,26.20
2019-02-24T22:32:07.936Z,24.13
2019-02-24T22:34:38.213Z,26.03
2019-02-24T22:37:08.582Z,24.00
2019-02-24T22:39:38.897Z,24.50
2019-02-24T22:42:09.215Z,26.07
2019-02-24T22:44:39.499Z,25.63
2019-02-24T22:47:10.261Z,26.30
2019-02-24T22:49:40.686Z,26.03
2019-02-24T22:52:10.866Z,27.87
2019-02-24T22:54:41.166Z,26.77
2019-02-24T22:57:11.357Z,26.10
2019-02-24T22:59:41.547Z,26.00
2019-02-24T23:02:12.305Z,26.68
2019-02-24T23:04:42.497Z,27.07
2019-02-24T23:07:12.720Z,28.90
2019-02-24T23:09:42.965Z,27.80
2019-02-24T23:12:13.204Z,27.33
2019-02-24T23:14:43.531Z,28.93
2019-02-24T23:17:13.781Z,28.73
2019-02-24T23:19:44.010Z,28.73
2019-02-24T23:22:14.258Z,28.60
2019-02-24T23:24:44.432Z,30.00
2019-02-24T23:27:14.622Z,27.27
2019-02-24T23:29:44.759Z,27.97
2019-02-24T23:32:15.080Z,29.50
2019-02-24T23:34:45.345Z,29.13
2019-02-24T23:37:15.708Z,27.90
2019-02-24T23:39:45.973Z,27.50
2019-02-24T23:42:16.643Z,29.00
2019-02-24T23:44:46.766Z,27.73
2019-02-24T23:47:17.149Z,29.70
2019-02-24T23:49:47.393Z,30.10
2019-02-24T23:52:17.633Z,29.05
2019-02-24T23:54:47.760Z,30.60
2019-02-24T23:57:18.076Z,29.80
2019-02-24T23:59:48.272Z,29.63
